sensor_id;sensor_type;location;lat;lon;timestamp;pressure;altitude;pressure_sealevel;temperature;humidity
52591;BME280;38483;42.620;25.394;2022-11-20T00:01:05;96569.91;;;17.26;84.69
52591;BME280;38483;42.620;25.394;2022-11-20T00:03:32;96590.97;;;17.24;84.72
52591;BME280;38483;42.620;25.394;2022-11-20T00:06:03;96566.69;;;17.22;85.15
52591;BME280;38483;42.620;25.394;2022-11-20T00:08:30;96560.97;;;17.28;84.83
52591;BME280;38483;42.620;25.394;2022-11-20T00:10:57;96560.50;;;17.23;85.01
52591;BME280;38483;42.620;25.394;2022-11-20T00:13:24;96561.47;;;17.22;84.93
52591;BME280;38483;42.620;25.394;2022-11-20T00:15:56;96566.72;;;17.11;85.29
52591;BME280;38483;42.620;25.394;2022-11-20T00:18:23;96565.88;;;17.22;84.88
52591;BME280;38483;42.620;25.394;2022-11-20T00:20:50;96570.25;;;17.21;85.07
52591;BME280;38483;42.620;25.394;2022-11-20T00:23:17;96567.78;;;17.20;84.77
52591;BME280;38483;42.620;25.394;2022-11-20T00:25:44;96566.22;;;17.28;84.53
52591;BME280;38483;42.620;25.394;2022-11-20T00:28:11;96564.03;;;17.33;84.12
52591;BME280;38483;42.620;25.394;2022-11-20T00:30:38;96564.50;;;17.38;84.39
52591;BME280;38483;42.620;25.394;2022-11-20T00:33:05;96548.81;;;17.27;84.26
52591;BME280;38483;42.620;25.394;2022-11-20T00:35:33;96578.81;;;17.34;84.16
52591;BME280;38483;42.620;25.394;2022-11-20T00:38:01;96571.28;;;17.41;84.01
52591;BME280;38483;42.620;25.394;2022-11-20T00:40:31;96556.91;;;17.35;84.25
52591;BME280;38483;42.620;25.394;2022-11-20T00:42:58;96563.81;;;17.36;84.17
52591;BME280;38483;42.620;25.394;2022-11-20T00:45:25;96542.16;;;17.34;84.48
52591;BME280;38483;42.620;25.394;2022-11-20T00:47:52;96536.94;;;17.23;84.63
52591;BME280;38483;42.620;25.394;2022-11-20T00:50:19;96538.84;;;17.21;84.93
52591;BME280;38483;42.620;25.394;2022-11-20T00:52:46;96544.22;;;17.20;85.19
52591;BME280;38483;42.620;25.394;2022-11-20T00:55:12;96537.44;;;17.17;85.04
52591;BME280;38483;42.620;25.394;2022-11-20T00:57:39;96536.94;;;17.23;85.02
52591;BME280;38483;42.620;25.394;2022-11-20T01:00:07;96544.78;;;17.34;84.71
52591;BME280;38483;42.620;25.394;2022-11-20T01:02:34;96535.00;;;17.36;83.98
52591;BME280;38483;42.620;25.394;2022-11-20T01:05:01;96520.22;;;17.46;83.73
52591;BME280;38483;42.620;25.394;2022-11-20T01:07:29;96551.31;;;17.51;82.86
52591;BME280;38483;42.620;25.394;2022-11-20T01:09:55;96536.16;;;17.54;82.81
52591;BME280;38483;42.620;25.394;2022-11-20T01:12:22;96535.09;;;17.57;82.25
52591;BME280;38483;42.620;25.394;2022-11-20T01:14:49;96522.72;;;17.59;82.09
52591;BME280;38483;42.620;25.394;2022-11-20T01:17:16;96535.94;;;17.57;82.36
52591;BME280;38483;42.620;25.394;2022-11-20T01:19:43;96544.63;;;17.47;82.12
52591;BME280;38483;42.620;25.394;2022-11-20T01:22:10;96543.19;;;17.54;81.88
52591;BME280;38483;42.620;25.394;2022-11-20T01:24:37;96549.44;;;17.31;83.18
52591;BME280;38483;42.620;25.394;2022-11-20T01:27:06;96556.81;;;17.26;83.40
52591;BME280;38483;42.620;25.394;2022-11-20T01:29:33;96540.63;;;17.32;83.52
52591;BME280;38483;42.620;25.394;2022-11-20T01:32:00;96533.13;;;17.27;83.17
52591;BME280;38483;42.620;25.394;2022-11-20T01:34:27;96528.72;;;17.28;82.87
52591;BME280;38483;42.620;25.394;2022-11-20T01:36:54;96515.50;;;17.29;83.50
52591;BME280;38483;42.620;25.394;2022-11-20T01:39:22;96522.69;;;17.16;83.99
52591;BME280;38483;42.620;25.394;2022-11-20T01:41:51;96516.63;;;17.16;84.02
52591;BME280;38483;42.620;25.394;2022-11-20T01:47:14;96512.44;;;17.24;83.13
52591;BME280;38483;42.620;25.394;2022-11-20T01:49:42;96497.44;;;17.26;83.06
52591;BME280;38483;42.620;25.394;2022-11-20T01:52:21;96495.41;;;17.30;83.38
52591;BME280;38483;42.620;25.394;2022-11-20T01:54:56;96499.59;;;17.21;83.72
52591;BME280;38483;42.620;25.394;2022-11-20T01:57:27;96504.97;;;17.20;84.27
52591;BME280;38483;42.620;25.394;2022-11-20T02:00:00;96503.75;;;17.24;83.66
52591;BME280;38483;42.620;25.394;2022-11-20T02:02:38;96501.47;;;17.30;83.42
52591;BME280;38483;42.620;25.394;2022-11-20T02:05:18;96497.91;;;17.31;83.73
52591;BME280;38483;42.620;25.394;2022-11-20T02:07:47;96489.47;;;17.28;83.91
52591;BME280;38483;42.620;25.394;2022-11-20T02:10:15;96510.28;;;17.29;83.65
52591;BME280;38483;42.620;25.394;2022-11-20T02:12:42;96513.28;;;17.25;84.08
52591;BME280;38483;42.620;25.394;2022-11-20T02:15:47;96514.81;;;17.27;84.02
52591;BME280;38483;42.620;25.394;2022-11-20T02:18:15;96526.47;;;17.23;83.74
52591;BME280;38483;42.620;25.394;2022-11-20T02:20:45;96536.72;;;17.15;84.06
52591;BME280;38483;42.620;25.394;2022-11-20T02:26:15;96548.66;;;16.86;86.00
52591;BME280;38483;42.620;25.394;2022-11-20T02:28:43;96555.22;;;16.80;86.39
52591;BME280;38483;42.620;25.394;2022-11-20T02:31:10;96551.16;;;16.76;86.37
52591;BME280;38483;42.620;25.394;2022-11-20T02:33:37;96566.50;;;16.81;85.96
52591;BME280;38483;42.620;25.394;2022-11-20T02:36:04;96552.81;;;16.88;85.53
52591;BME280;38483;42.620;25.394;2022-11-20T02:38:32;96555.44;;;16.99;85.69
52591;BME280;38483;42.620;25.394;2022-11-20T02:40:59;96548.16;;;17.03;85.02
52591;BME280;38483;42.620;25.394;2022-11-20T02:43:25;96550.34;;;16.98;85.09
52591;BME280;38483;42.620;25.394;2022-11-20T02:45:52;96538.50;;;17.15;83.90
52591;BME280;38483;42.620;25.394;2022-11-20T02:48:19;96539.59;;;17.12;84.07
52591;BME280;38483;42.620;25.394;2022-11-20T02:50:47;96540.41;;;17.13;84.11
52591;BME280;38483;42.620;25.394;2022-11-20T02:53:34;96542.44;;;17.20;83.43
52591;BME280;38483;42.620;25.394;2022-11-20T02:56:02;96532.91;;;17.30;82.65
52591;BME280;38483;42.620;25.394;2022-11-20T02:58:30;96540.38;;;17.35;82.53
52591;BME280;38483;42.620;25.394;2022-11-20T03:00:57;96521.44;;;17.31;82.79
52591;BME280;38483;42.620;25.394;2022-11-20T03:03:25;96520.50;;;17.32;82.39
52591;BME280;38483;42.620;25.394;2022-11-20T03:05:52;96525.28;;;17.27;82.69
52591;BME280;38483;42.620;25.394;2022-11-20T03:08:19;96522.91;;;17.24;83.09
52591;BME280;38483;42.620;25.394;2022-11-20T03:10:47;96536.94;;;17.23;83.35
52591;BME280;38483;42.620;25.394;2022-11-20T03:13:14;96537.56;;;17.27;82.91
52591;BME280;38483;42.620;25.394;2022-11-20T03:15:40;96545.06;;;17.20;82.94
52591;BME280;38483;42.620;25.394;2022-11-20T03:18:07;96543.50;;;17.18;83.19
52591;BME280;38483;42.620;25.394;2022-11-20T03:20:35;96527.31;;;17.24;82.60
52591;BME280;38483;42.620;25.394;2022-11-20T03:23:02;96525.06;;;17.19;82.98
52591;BME280;38483;42.620;25.394;2022-11-20T03:25:28;96530.28;;;17.19;82.77
52591;BME280;38483;42.620;25.394;2022-11-20T03:27:56;96509.34;;;17.19;83.21
52591;BME280;38483;42.620;25.394;2022-11-20T03:30:22;96505.44;;;17.25;82.66
52591;BME280;38483;42.620;25.394;2022-11-20T03:32:55;96500.44;;;17.22;82.56
52591;BME280;38483;42.620;25.394;2022-11-20T03:35:22;96491.75;;;17.21;83.04
52591;BME280;38483;42.620;25.394;2022-11-20T03:37:49;96504.84;;;17.21;82.93
52591;BME280;38483;42.620;25.394;2022-11-20T03:40:16;96496.41;;;17.18;82.54
52591;BME280;38483;42.620;25.394;2022-11-20T03:42:43;96504.25;;;17.18;82.48
52591;BME280;38483;42.620;25.394;2022-11-20T03:45:14;96500.94;;;17.16;82.38
52591;BME280;38483;42.620;25.394;2022-11-20T03:47:41;96497.25;;;17.18;82.09
52591;BME280;38483;42.620;25.394;2022-11-20T03:50:09;96498.78;;;17.21;82.02
52591;BME280;38483;42.620;25.394;2022-11-20T03:52:37;96514.16;;;17.14;82.03
52591;BME280;38483;42.620;25.394;2022-11-20T03:55:05;96501.97;;;17.24;82.00
52591;BME280;38483;42.620;25.394;2022-11-20T03:57:32;96509.34;;;17.30;81.33
52591;BME280;38483;42.620;25.394;2022-11-20T03:59:59;96511.63;;;17.24;81.18
52591;BME280;38483;42.620;25.394;2022-11-20T04:02:29;96519.09;;;17.28;81.14
52591;BME280;38483;42.620;25.394;2022-11-20T04:04:59;96510.91;;;17.22;81.70
52591;BME280;38483;42.620;25.394;2022-11-20T04:07:27;96512.34;;;17.15;81.57
52591;BME280;38483;42.620;25.394;2022-11-20T04:09:54;96510.78;;;17.23;81.13
52591;BME280;38483;42.620;25.394;2022-11-20T04:12:21;96512.44;;;17.24;80.98
52591;BME280;38483;42.620;25.394;2022-11-20T04:14:48;96518.75;;;17.22;80.75
52591;BME280;38483;42.620;25.394;2022-11-20T04:17:15;96511.94;;;17.30;80.53
52591;BME280;38483;42.620;25.394;2022-11-20T04:19:45;96511.63;;;17.24;80.54
52591;BME280;38483;42.620;25.394;2022-11-20T04:22:12;96510.28;;;17.29;80.57
52591;BME280;38483;42.620;25.394;2022-11-20T04:24:39;96507.78;;;17.28;80.38
52591;BME280;38483;42.620;25.394;2022-11-20T04:27:06;96522.34;;;17.21;80.34
52591;BME280;38483;42.620;25.394;2022-11-20T04:29:36;96524.34;;;17.17;80.32
52591;BME280;38483;42.620;25.394;2022-11-20T04:32:04;96523.50;;;17.28;79.88
52591;BME280;38483;42.620;25.394;2022-11-20T04:34:31;96534.88;;;17.38;79.92
52591;BME280;38483;42.620;25.394;2022-11-20T04:37:00;96545.00;;;17.31;79.93
52591;BME280;38483;42.620;25.394;2022-11-20T04:39:27;96544.50;;;17.37;79.73
52591;BME280;38483;42.620;25.394;2022-11-20T04:41:54;96539.78;;;17.31;79.44
52591;BME280;38483;42.620;25.394;2022-11-20T04:44:44;96549.53;;;17.29;79.47
52591;BME280;38483;42.620;25.394;2022-11-20T04:47:11;96551.91;;;17.32;79.04
52591;BME280;38483;42.620;25.394;2022-11-20T04:49:39;96553.81;;;17.41;78.94
52591;BME280;38483;42.620;25.394;2022-11-20T04:52:06;96546.19;;;17.49;78.70
52591;BME280;38483;42.620;25.394;2022-11-20T04:54:34;96549.28;;;17.43;78.35
52591;BME280;38483;42.620;25.394;2022-11-20T04:57:01;96543.44;;;17.40;78.59
52591;BME280;38483;42.620;25.394;2022-11-20T04:59:27;96546.75;;;17.42;78.94
52591;BME280;38483;42.620;25.394;2022-11-20T05:01:55;96553.34;;;17.36;78.80
52591;BME280;38483;42.620;25.394;2022-11-20T05:04:23;96545.72;;;17.33;79.03
52591;BME280;38483;42.620;25.394;2022-11-20T05:06:50;96552.50;;;17.36;79.14
52591;BME280;38483;42.620;25.394;2022-11-20T05:09:18;96560.81;;;17.41;79.15
52591;BME280;38483;42.620;25.394;2022-11-20T05:11:45;96559.66;;;17.34;79.03
52591;BME280;38483;42.620;25.394;2022-11-20T05:14:16;96545.00;;;17.31;79.15
52591;BME280;38483;42.620;25.394;2022-11-20T05:16:43;96558.09;;;17.31;79.23
52591;BME280;38483;42.620;25.394;2022-11-20T05:19:10;96556.66;;;17.38;79.35
52591;BME280;38483;42.620;25.394;2022-11-20T05:21:37;96544.66;;;17.36;79.04
52591;BME280;38483;42.620;25.394;2022-11-20T05:24:04;96548.34;;;17.33;79.13
52591;BME280;38483;42.620;25.394;2022-11-20T05:26:32;96541.59;;;17.31;79.38
52591;BME280;38483;42.620;25.394;2022-11-20T05:28:59;96540.97;;;17.38;79.16
52591;BME280;38483;42.620;25.394;2022-11-20T05:31:26;96546.69;;;17.32;79.46
52591;BME280;38483;42.620;25.394;2022-11-20T05:33:54;96537.88;;;17.33;79.49
52591;BME280;38483;42.620;25.394;2022-11-20T05:36:22;96542.38;;;17.42;79.54
52591;BME280;38483;42.620;25.394;2022-11-20T05:38:49;96559.78;;;17.32;79.61
52591;BME280;38483;42.620;25.394;2022-11-20T05:41:19;96569.28;;;17.33;79.90
52591;BME280;38483;42.620;25.394;2022-11-20T05:43:47;96556.69;;;17.27;80.68
52591;BME280;38483;42.620;25.394;2022-11-20T05:46:14;96549.09;;;17.24;80.82
52591;BME280;38483;42.620;25.394;2022-11-20T05:48:42;96559.91;;;17.31;81.23
52591;BME280;38483;42.620;25.394;2022-11-20T05:51:10;96563.22;;;17.33;80.84
52591;BME280;38483;42.620;25.394;2022-11-20T05:53:37;96561.41;;;17.44;80.72
52591;BME280;38483;42.620;25.394;2022-11-20T05:56:11;96569.38;;;17.43;80.41
52591;BME280;38483;42.620;25.394;2022-11-20T05:58:39;96569.28;;;17.33;81.46
52591;BME280;38483;42.620;25.394;2022-11-20T06:03:37;96562.53;;;17.31;81.62
52591;BME280;38483;42.620;25.394;2022-11-20T06:06:04;96565.88;;;17.22;82.19
52591;BME280;38483;42.620;25.394;2022-11-20T06:08:33;96555.25;;;17.23;82.53
52591;BME280;38483;42.620;25.394;2022-11-20T06:11:04;96571.94;;;17.22;82.63
52591;BME280;38483;42.620;25.394;2022-11-20T06:13:33;96576.09;;;17.25;82.24
52591;BME280;38483;42.620;25.394;2022-11-20T06:16:09;96582.25;;;17.35;82.15
52591;BME280;38483;42.620;25.394;2022-11-20T06:18:36;96581.91;;;17.28;82.35
52591;BME280;38483;42.620;25.394;2022-11-20T06:21:09;96593.09;;;17.30;82.07
52591;BME280;38483;42.620;25.394;2022-11-20T06:23:37;96576.19;;;17.34;82.20
52591;BME280;38483;42.620;25.394;2022-11-20T06:26:08;96576.03;;;17.47;81.94
52591;BME280;38483;42.620;25.394;2022-11-20T06:28:37;96579.50;;;17.47;81.48
52591;BME280;38483;42.620;25.394;2022-11-20T06:31:05;96563.88;;;17.46;81.67
52591;BME280;38483;42.620;25.394;2022-11-20T06:33:32;96566.41;;;17.47;81.34
52591;BME280;38483;42.620;25.394;2022-11-20T06:36:00;96531.22;;;17.29;81.27
52591;BME280;38483;42.620;25.394;2022-11-20T06:38:35;96570.34;;;17.53;81.33
52591;BME280;38483;42.620;25.394;2022-11-20T06:41:03;96571.97;;;17.65;80.78
52591;BME280;38483;42.620;25.394;2022-11-20T06:43:31;96585.31;;;17.62;80.74
52591;BME280;38483;42.620;25.394;2022-11-20T06:45:58;96600.84;;;17.74;80.62
52591;BME280;38483;42.620;25.394;2022-11-20T06:48:26;96588.25;;;17.68;80.47
52591;BME280;38483;42.620;25.394;2022-11-20T06:50:54;96591.97;;;17.66;80.30
52591;BME280;38483;42.620;25.394;2022-11-20T06:53:23;96599.44;;;17.70;80.02
52591;BME280;38483;42.620;25.394;2022-11-20T06:55:51;96597.00;;;17.78;79.89
52591;BME280;38483;42.620;25.394;2022-11-20T06:58:18;96600.78;;;17.65;80.15
52591;BME280;38483;42.620;25.394;2022-11-20T07:00:45;96603.31;;;17.55;81.04
52591;BME280;38483;42.620;25.394;2022-11-20T07:03:13;96612.09;;;17.65;80.80
52591;BME280;38483;42.620;25.394;2022-11-20T07:05:40;96606.56;;;17.68;80.30
52591;BME280;38483;42.620;25.394;2022-11-20T07:08:07;96604.66;;;17.70;80.06
52591;BME280;38483;42.620;25.394;2022-11-20T07:10:35;96604.81;;;17.69;80.79
52591;BME280;38483;42.620;25.394;2022-11-20T07:13:02;96610.03;;;17.69;80.85
52591;BME280;38483;42.620;25.394;2022-11-20T07:15:29;96606.47;;;17.70;80.63
52591;BME280;38483;42.620;25.394;2022-11-20T07:17:59;96607.56;;;17.67;80.86
52591;BME280;38483;42.620;25.394;2022-11-20T07:20:27;96613.38;;;17.71;80.62
52591;BME280;38483;42.620;25.394;2022-11-20T07:22:56;96603.66;;;17.51;81.32
52591;BME280;38483;42.620;25.394;2022-11-20T07:25:27;96612.78;;;17.67;80.95
52591;BME280;38483;42.620;25.394;2022-11-20T07:27:58;96608.25;;;17.69;80.70
52591;BME280;38483;42.620;25.394;2022-11-20T07:30:28;96610.13;;;17.78;80.47
52591;BME280;38483;42.620;25.394;2022-11-20T07:32:56;96593.53;;;17.89;80.48
52591;BME280;38483;42.620;25.394;2022-11-20T07:35:23;96597.31;;;17.96;79.67
52591;BME280;38483;42.620;25.394;2022-11-20T07:37:50;96588.91;;;18.13;79.05
52591;BME280;38483;42.620;25.394;2022-11-20T07:40:18;96586.59;;;18.20;78.64
52591;BME280;38483;42.620;25.394;2022-11-20T07:45:17;96589.91;;;18.22;78.21
52591;BME280;38483;42.620;25.394;2022-11-20T07:47:49;96591.06;;;18.29;77.71
52591;BME280;38483;42.620;25.394;2022-11-20T07:50:19;96588.91;;;18.34;77.79
52591;BME280;38483;42.620;25.394;2022-11-20T07:52:46;96585.06;;;18.17;78.41
52591;BME280;38483;42.620;25.394;2022-11-20T07:55:17;96592.94;;;18.17;78.31
52591;BME280;38483;42.620;25.394;2022-11-20T07:57:45;96589.41;;;18.07;79.02
52591;BME280;38483;42.620;25.394;2022-11-20T08:00:14;96599.44;;;18.02;78.95
52591;BME280;38483;42.620;25.394;2022-11-20T08:02:43;96605.56;;;18.12;78.66
52591;BME280;38483;42.620;25.394;2022-11-20T08:05:11;96601.69;;;18.07;78.75
52591;BME280;38483;42.620;25.394;2022-11-20T08:07:42;96606.78;;;18.08;78.84
52591;BME280;38483;42.620;25.394;2022-11-20T08:10:15;96614.97;;;17.94;79.45
52591;BME280;38483;42.620;25.394;2022-11-20T08:12:47;96616.94;;;18.02;79.34
52591;BME280;38483;42.620;25.394;2022-11-20T08:15:34;96613.00;;;18.07;79.00
52591;BME280;38483;42.620;25.394;2022-11-20T08:18:03;96617.72;;;17.93;79.77
52591;BME280;38483;42.620;25.394;2022-11-20T08:20:52;96614.38;;;17.91;79.41
52591;BME280;38483;42.620;25.394;2022-11-20T08:23:54;96613.59;;;18.00;79.33
52591;BME280;38483;42.620;25.394;2022-11-20T08:26:22;96607.44;;;18.01;79.58
52591;BME280;38483;42.620;25.394;2022-11-20T08:28:54;96606.59;;;18.00;79.24
52591;BME280;38483;42.620;25.394;2022-11-20T08:31:24;96609.91;;;18.02;79.27
52591;BME280;38483;42.620;25.394;2022-11-20T08:33:51;96605.00;;;18.09;78.99
52591;BME280;38483;42.620;25.394;2022-11-20T08:36:20;96598.34;;;18.05;78.63
52591;BME280;38483;42.620;25.394;2022-11-20T08:38:52;96598.22;;;18.06;78.73
52591;BME280;38483;42.620;25.394;2022-11-20T08:41:19;96600.50;;;18.00;79.39
52591;BME280;38483;42.620;25.394;2022-11-20T08:44:00;96587.88;;;18.05;79.32
52591;BME280;38483;42.620;25.394;2022-11-20T08:46:32;96592.22;;;18.15;78.75
52591;BME280;38483;42.620;25.394;2022-11-20T08:49:07;96577.06;;;17.98;78.87
52591;BME280;38483;42.620;25.394;2022-11-20T08:51:35;96587.78;;;17.95;79.52
52591;BME280;38483;42.620;25.394;2022-11-20T08:54:05;96589.97;;;18.11;79.00
52591;BME280;38483;42.620;25.394;2022-11-20T08:56:32;96590.16;;;17.98;79.27
52591;BME280;38483;42.620;25.394;2022-11-20T08:58:59;96585.69;;;18.10;79.10
52591;BME280;38483;42.620;25.394;2022-11-20T09:01:47;96572.53;;;18.21;78.94
52591;BME280;38483;42.620;25.394;2022-11-20T09:04:14;96567.16;;;18.02;79.48
52591;BME280;38483;42.620;25.394;2022-11-20T09:06:40;96564.72;;;18.10;79.02
52591;BME280;38483;42.620;25.394;2022-11-20T09:09:07;96563.78;;;18.11;78.87
52591;BME280;38483;42.620;25.394;2022-11-20T09:11:35;96563.31;;;18.06;79.21
52591;BME280;38483;42.620;25.394;2022-11-20T09:14:03;96563.97;;;18.19;78.80
52591;BME280;38483;42.620;25.394;2022-11-20T09:16:31;96553.44;;;18.30;78.01
52591;BME280;38483;42.620;25.394;2022-11-20T09:19:00;96553.13;;;18.44;77.81
52591;BME280;38483;42.620;25.394;2022-11-20T09:21:47;96552.59;;;18.50;77.34
52591;BME280;38483;42.620;25.394;2022-11-20T09:24:17;96546.66;;;18.48;77.11
52591;BME280;38483;42.620;25.394;2022-11-20T09:26:47;96545.31;;;18.63;76.78
52591;BME280;38483;42.620;25.394;2022-11-20T09:29:14;96540.38;;;18.69;76.73
52591;BME280;38483;42.620;25.394;2022-11-20T09:31:42;96548.44;;;18.78;75.98
52591;BME280;38483;42.620;25.394;2022-11-20T09:34:09;96550.72;;;18.61;75.81
52591;BME280;38483;42.620;25.394;2022-11-20T09:36:37;96526.25;;;18.61;76.11
52591;BME280;38483;42.620;25.394;2022-11-20T09:39:10;96521.03;;;18.61;75.97
52591;BME280;38483;42.620;25.394;2022-11-20T09:47:08;96526.56;;;18.98;74.90
52591;BME280;38483;42.620;25.394;2022-11-20T09:52:44;96522.56;;;19.03;74.24
52591;BME280;38483;42.620;25.394;2022-11-20T09:55:20;96516.63;;;19.01;74.19
52591;BME280;38483;42.620;25.394;2022-11-20T09:57:50;96505.03;;;19.04;73.97
52591;BME280;38483;42.620;25.394;2022-11-20T10:00:20;96513.88;;;19.12;74.02
52591;BME280;38483;42.620;25.394;2022-11-20T10:05:20;96507.69;;;18.74;74.66
52591;BME280;38483;42.620;25.394;2022-11-20T10:10:43;96493.41;;;18.97;73.98
52591;BME280;38483;42.620;25.394;2022-11-20T10:23:41;96478.25;;;19.19;72.74
52591;BME280;38483;42.620;25.394;2022-11-20T10:26:31;96493.72;;;19.22;72.71
52591;BME280;38483;42.620;25.394;2022-11-20T10:31:39;96500.34;;;19.17;72.57
52591;BME280;38483;42.620;25.394;2022-11-20T10:36:56;96488.72;;;19.10;72.25
52591;BME280;38483;42.620;25.394;2022-11-20T10:42:01;96485.41;;;19.17;71.40
52591;BME280;38483;42.620;25.394;2022-11-20T10:44:32;96484.38;;;19.39;71.15
52591;BME280;38483;42.620;25.394;2022-11-20T10:47:28;96490.72;;;19.46;70.44
52591;BME280;38483;42.620;25.394;2022-11-20T10:50:23;96485.75;;;19.33;70.72
52591;BME280;38483;42.620;25.394;2022-11-20T10:53:13;96470.78;;;19.24;70.31
52591;BME280;38483;42.620;25.394;2022-11-20T10:55:55;96478.56;;;19.35;70.33
52591;BME280;38483;42.620;25.394;2022-11-20T10:58:56;96477.59;;;19.36;70.38
52591;BME280;38483;42.620;25.394;2022-11-20T11:01:28;96455.44;;;19.29;70.24
52591;BME280;38483;42.620;25.394;2022-11-20T11:07:15;96450.47;;;19.26;70.16
52591;BME280;38483;42.620;25.394;2022-11-20T11:09:54;96446.78;;;19.38;70.17
52591;BME280;38483;42.620;25.394;2022-11-20T11:12:27;96455.91;;;19.34;70.84
52591;BME280;38483;42.620;25.394;2022-11-20T11:14:57;96426.56;;;19.29;70.74
52591;BME280;38483;42.620;25.394;2022-11-20T11:17:29;96442.34;;;19.48;70.42
52591;BME280;38483;42.620;25.394;2022-11-20T11:22:39;96434.75;;;19.45;70.46
52591;BME280;38483;42.620;25.394;2022-11-20T11:28:00;96427.53;;;19.67;69.83
52591;BME280;38483;42.620;25.394;2022-11-20T11:30:45;96423.28;;;19.66;69.51
52591;BME280;38483;42.620;25.394;2022-11-20T11:33:27;96420.78;;;19.55;70.27
52591;BME280;38483;42.620;25.394;2022-11-20T11:36:17;96427.16;;;19.62;69.57
52591;BME280;38483;42.620;25.394;2022-11-20T11:38:51;96436.13;;;19.59;69.52
52591;BME280;38483;42.620;25.394;2022-11-20T11:41:26;96416.19;;;19.66;69.06
52591;BME280;38483;42.620;25.394;2022-11-20T11:44:01;96418.25;;;19.82;68.99
52591;BME280;38483;42.620;25.394;2022-11-20T11:46:53;96414.06;;;19.98;68.01
52591;BME280;38483;42.620;25.394;2022-11-20T11:49:22;96414.69;;;20.10;68.08
52591;BME280;38483;42.620;25.394;2022-11-20T11:57:51;96406.34;;;20.34;67.76
52591;BME280;38483;42.620;25.394;2022-11-20T12:00:24;96398.94;;;20.47;66.68
52591;BME280;38483;42.620;25.394;2022-11-20T12:05:27;96403.50;;;20.72;64.24
52591;BME280;38483;42.620;25.394;2022-11-20T12:13:34;96407.50;;;20.49;64.28
52591;BME280;38483;42.620;25.394;2022-11-20T12:16:07;96404.44;;;20.53;64.16
52591;BME280;38483;42.620;25.394;2022-11-20T12:18:54;96400.09;;;20.44;64.74
52591;BME280;38483;42.620;25.394;2022-11-20T12:21:31;96391.94;;;20.38;64.98
52591;BME280;38483;42.620;25.394;2022-11-20T12:34:51;96403.75;;;20.14;65.48
52591;BME280;38483;42.620;25.394;2022-11-20T12:43:18;96390.50;;;20.06;65.77
52591;BME280;38483;42.620;25.394;2022-11-20T12:46:05;96387.19;;;20.04;65.92
52591;BME280;38483;42.620;25.394;2022-11-20T12:48:42;96379.31;;;19.95;66.31
52591;BME280;38483;42.620;25.394;2022-11-20T12:57:06;96378.38;;;19.96;66.45
52591;BME280;38483;42.620;25.394;2022-11-20T13:02:14;96369.22;;;20.00;66.52
52591;BME280;38483;42.620;25.394;2022-11-20T13:04:49;96382.78;;;20.05;66.40
52591;BME280;38483;42.620;25.394;2022-11-20T13:07:20;96378.06;;;20.08;66.11
52591;BME280;38483;42.620;25.394;2022-11-20T13:09:48;96378.19;;;20.07;66.01
52591;BME280;38483;42.620;25.394;2022-11-20T13:12:19;96370.84;;;20.10;65.88
52591;BME280;38483;42.620;25.394;2022-11-20T13:15:02;96378.00;;;20.18;65.81
52591;BME280;38483;42.620;25.394;2022-11-20T13:17:40;96372.25;;;20.05;66.42
52591;BME280;38483;42.620;25.394;2022-11-20T13:20:12;96361.75;;;19.95;66.49
52591;BME280;38483;42.620;25.394;2022-11-20T13:22:50;96375.22;;;19.92;66.56
52591;BME280;38483;42.620;25.394;2022-11-20T13:25:27;96378.53;;;19.85;66.71
52591;BME280;38483;42.620;25.394;2022-11-20T13:27:56;96367.84;;;19.96;66.57
52591;BME280;38483;42.620;25.394;2022-11-20T13:30:26;96375.47;;;19.99;66.46
52591;BME280;38483;42.620;25.394;2022-11-20T13:32:57;96370.06;;;19.91;66.55
52591;BME280;38483;42.620;25.394;2022-11-20T13:35:28;96360.44;;;19.82;66.64
52591;BME280;38483;42.620;25.394;2022-11-20T13:37:59;96363.50;;;19.77;66.81
52591;BME280;38483;42.620;25.394;2022-11-20T13:40:27;96359.06;;;19.78;66.91
52591;BME280;38483;42.620;25.394;2022-11-20T13:42:56;96356.59;;;19.76;66.78
52591;BME280;38483;42.620;25.394;2022-11-20T13:45:59;96352.97;;;19.77;66.63
52591;BME280;38483;42.620;25.394;2022-11-20T13:48:29;96355.47;;;19.79;66.72
52591;BME280;38483;42.620;25.394;2022-11-20T13:53:44;96352.56;;;19.82;66.56
52591;BME280;38483;42.620;25.394;2022-11-20T14:01:59;96363.53;;;19.68;66.71
52591;BME280;38483;42.620;25.394;2022-11-20T14:04:29;96368.47;;;19.71;66.57
52591;BME280;38483;42.620;25.394;2022-11-20T14:06:57;96371.69;;;19.65;67.13
52591;BME280;38483;42.620;25.394;2022-11-20T14:11:52;96369.09;;;19.55;68.22
52591;BME280;38483;42.620;25.394;2022-11-20T14:14:23;96369.66;;;19.49;68.80
52591;BME280;38483;42.620;25.394;2022-11-20T14:17:07;96369.06;;;19.45;69.38
52591;BME280;38483;42.620;25.394;2022-11-20T14:19:34;96371.84;;;19.44;69.56
52591;BME280;38483;42.620;25.394;2022-11-20T14:22:17;96362.75;;;19.38;69.94
52591;BME280;38483;42.620;25.394;2022-11-20T14:24:48;96365.91;;;19.32;70.11
52591;BME280;38483;42.620;25.394;2022-11-20T14:27:19;96369.38;;;19.33;70.54
52591;BME280;38483;42.620;25.394;2022-11-20T14:29:48;96365.06;;;19.32;70.87
52591;BME280;38483;42.620;25.394;2022-11-20T14:32:21;96364.94;;;19.33;70.99
52591;BME280;38483;42.620;25.394;2022-11-20T14:35:10;96361.06;;;19.37;71.16
52591;BME280;38483;42.620;25.394;2022-11-20T14:38:08;96377.13;;;19.34;71.59
52591;BME280;38483;42.620;25.394;2022-11-20T14:40:39;96373.22;;;19.29;71.50
52591;BME280;38483;42.620;25.394;2022-11-20T14:45:51;96397.53;;;19.21;72.24
52591;BME280;38483;42.620;25.394;2022-11-20T14:48:24;96416.06;;;19.29;71.79
52591;BME280;38483;42.620;25.394;2022-11-20T14:50:53;96420.59;;;19.08;73.56
52591;BME280;38483;42.620;25.394;2022-11-20T14:53:22;96426.00;;;19.07;73.51